sensor_id;sensor_type;location;lat;lon;timestamp;temperature;humidity
67748;HTU21D;54543;50.712;6.070;2023-05-20T00:00:07;12.67;57.15
67748;HTU21D;54543;50.712;6.070;2023-05-20T00:02:33;12.65;57.46
67748;HTU21D;54543;50.712;6.070;2023-05-20T00:04:58;12.61;57.48
67748;HTU21D;54543;50.712;6.070;2023-05-20T00:07:24;12.59;57.51
67748;HTU21D;54543;50.712;6.070;2023-05-20T00:09:50;12.57;57.53
67748;HTU21D;54543;50.712;6.070;2023-05-20T00:12:16;12.55;57.89
67748;HTU21D;54543;50.712;6.070;2023-05-20T00:14:42;12.50;58.00
67748;HTU21D;54543;50.712;6.070;2023-05-20T00:17:07;12.49;58.07
67748;HTU21D;54543;50.712;6.070;2023-05-20T00:19:33;12.46;58.18
67748;HTU21D;54543;50.712;6.070;2023-05-20T00:21:58;12.45;58.21
67748;HTU21D;54543;50.712;6.070;2023-05-20T00:24:24;12.43;58.25
67748;HTU21D;54543;50.712;6.070;2023-05-20T00:26:50;12.40;58.34
67748;HTU21D;54543;50.712;6.070;2023-05-20T00:29:16;12.37;58.64
67748;HTU21D;54543;50.712;6.070;2023-05-20T00:31:41;12.36;58.96
67748;HTU21D;54543;50.712;6.070;2023-05-20T00:34:07;12.33;58.93
67748;HTU21D;54543;50.712;6.070;2023-05-20T00:36:33;12.31;58.98
67748;HTU21D;54543;50.712;6.070;2023-05-20T00:38:59;12.28;59.09
67748;HTU21D;54543;50.712;6.070;2023-05-20T00:41:25;12.27;59.12
67748;HTU21D;54543;50.712;6.070;2023-05-20T00:43:54;12.23;59.52
67748;HTU21D;54543;50.712;6.070;2023-05-20T00:46:23;12.19;59.44
67748;HTU21D;54543;50.712;6.070;2023-05-20T00:48:50;12.15;59.49
67748;HTU21D;54543;50.712;6.070;2023-05-20T00:51:17;12.12;59.61
67748;HTU21D;54543;50.712;6.070;2023-05-20T00:53:43;12.08;59.71
67748;HTU21D;54543;50.712;6.070;2023-05-20T00:56:09;12.03;59.94
67748;HTU21D;54543;50.712;6.070;2023-05-20T00:58:35;11.99;60.10
67748;HTU21D;54543;50.712;6.070;2023-05-20T01:01:02;11.93;60.22
67748;HTU21D;54543;50.712;6.070;2023-05-20T01:03:28;11.91;60.29
67748;HTU21D;54543;50.712;6.070;2023-05-20T01:05:54;11.89;60.42
67748;HTU21D;54543;50.712;6.070;2023-05-20T01:08:21;11.86;60.43
67748;HTU21D;54543;50.712;6.070;2023-05-20T01:10:56;11.83;61.61
67748;HTU21D;54543;50.712;6.070;2023-05-20T01:13:25;11.76;66.27
67748;HTU21D;54543;50.712;6.070;2023-05-20T01:15:53;11.74;60.73
67748;HTU21D;54543;50.712;6.070;2023-05-20T01:18:22;11.71;61.05
67748;HTU21D;54543;50.712;6.070;2023-05-20T01:20:52;11.68;60.88
67748;HTU21D;54543;50.712;6.070;2023-05-20T01:23:18;11.67;60.87
67748;HTU21D;54543;50.712;6.070;2023-05-20T01:25:44;11.67;61.01
67748;HTU21D;54543;50.712;6.070;2023-05-20T01:28:10;11.63;61.07
67748;HTU21D;54543;50.712;6.070;2023-05-20T01:30:45;11.60;61.35
67748;HTU21D;54543;50.712;6.070;2023-05-20T01:33:13;11.57;61.49
67748;HTU21D;54543;50.712;6.070;2023-05-20T01:35:40;11.53;61.49
67748;HTU21D;54543;50.712;6.070;2023-05-20T01:38:07;11.52;61.60
67748;HTU21D;54543;50.712;6.070;2023-05-20T01:40:33;11.49;61.61
67748;HTU21D;54543;50.712;6.070;2023-05-20T01:43:00;11.45;61.88
67748;HTU21D;54543;50.712;6.070;2023-05-20T01:45:29;11.42;62.20
67748;HTU21D;54543;50.712;6.070;2023-05-20T01:47:55;11.39;62.05
67748;HTU21D;54543;50.712;6.070;2023-05-20T01:50:24;11.36;62.83
67748;HTU21D;54543;50.712;6.070;2023-05-20T01:52:52;11.33;62.53
67748;HTU21D;54543;50.712;6.070;2023-05-20T01:55:19;11.30;62.45
67748;HTU21D;54543;50.712;6.070;2023-05-20T01:57:46;11.29;62.47
67748;HTU21D;54543;50.712;6.070;2023-05-20T02:00:13;11.28;62.68
67748;HTU21D;54543;50.712;6.070;2023-05-20T02:02:38;11.25;62.74
67748;HTU21D;54543;50.712;6.070;2023-05-20T02:05:04;11.24;62.75
67748;HTU21D;54543;50.712;6.070;2023-05-20T02:07:31;11.22;62.86
67748;HTU21D;54543;50.712;6.070;2023-05-20T02:09:58;11.20;62.86
67748;HTU21D;54543;50.712;6.070;2023-05-20T02:12:24;11.16;63.05
67748;HTU21D;54543;50.712;6.070;2023-05-20T02:14:53;11.13;63.56
67748;HTU21D;54543;50.712;6.070;2023-05-20T02:17:20;11.05;63.39
67748;HTU21D;54543;50.712;6.070;2023-05-20T02:19:46;11.03;63.61
67748;HTU21D;54543;50.712;6.070;2023-05-20T02:22:12;10.98;63.82
67748;HTU21D;54543;50.712;6.070;2023-05-20T02:24:39;10.97;63.81
67748;HTU21D;54543;50.712;6.070;2023-05-20T02:27:05;10.96;63.85
67748;HTU21D;54543;50.712;6.070;2023-05-20T02:29:31;10.95;64.00
67748;HTU21D;54543;50.712;6.070;2023-05-20T02:31:57;10.92;64.01
67748;HTU21D;54543;50.712;6.070;2023-05-20T02:34:22;10.90;64.15
67748;HTU21D;54543;50.712;6.070;2023-05-20T02:36:50;10.88;64.30
67748;HTU21D;54543;50.712;6.070;2023-05-20T02:39:17;10.85;64.35
67748;HTU21D;54543;50.712;6.070;2023-05-20T02:41:42;10.85;64.40
67748;HTU21D;54543;50.712;6.070;2023-05-20T02:44:08;10.84;64.47
67748;HTU21D;54543;50.712;6.070;2023-05-20T02:46:34;10.81;64.66
67748;HTU21D;54543;50.712;6.070;2023-05-20T02:49:00;10.78;64.77
67748;HTU21D;54543;50.712;6.070;2023-05-20T02:51:25;10.74;64.94
67748;HTU21D;54543;50.712;6.070;2023-05-20T02:53:53;10.73;65.05
67748;HTU21D;54543;50.712;6.070;2023-05-20T02:56:20;10.71;65.01
67748;HTU21D;54543;50.712;6.070;2023-05-20T02:58:46;10.67;65.18
67748;HTU21D;54543;50.712;6.070;2023-05-20T03:01:12;10.64;65.37
67748;HTU21D;54543;50.712;6.070;2023-05-20T03:03:37;10.59;65.55
67748;HTU21D;54543;50.712;6.070;2023-05-20T03:06:08;10.55;65.76
67748;HTU21D;54543;50.712;6.070;2023-05-20T03:08:34;10.51;65.89
67748;HTU21D;54543;50.712;6.070;2023-05-20T03:11:00;10.46;66.11
67748;HTU21D;54543;50.712;6.070;2023-05-20T03:13:27;10.44;66.15
67748;HTU21D;54543;50.712;6.070;2023-05-20T03:15:53;10.42;66.21
67748;HTU21D;54543;50.712;6.070;2023-05-20T03:18:23;10.39;67.09
67748;HTU21D;54543;50.712;6.070;2023-05-20T03:20:49;10.35;66.36
67748;HTU21D;54543;50.712;6.070;2023-05-20T03:23:14;10.35;66.33
67748;HTU21D;54543;50.712;6.070;2023-05-20T03:25:41;10.34;66.27
67748;HTU21D;54543;50.712;6.070;2023-05-20T03:28:07;10.30;66.27
67748;HTU21D;54543;50.712;6.070;2023-05-20T03:30:32;10.27;66.36
67748;HTU21D;54543;50.712;6.070;2023-05-20T03:32:58;10.24;66.46
67748;HTU21D;54543;50.712;6.070;2023-05-20T03:35:25;10.23;66.47
67748;HTU21D;54543;50.712;6.070;2023-05-20T03:37:51;10.22;66.48
67748;HTU21D;54543;50.712;6.070;2023-05-20T03:40:19;10.19;66.71
67748;HTU21D;54543;50.712;6.070;2023-05-20T03:42:47;10.15;67.01
67748;HTU21D;54543;50.712;6.070;2023-05-20T03:45:15;10.12;67.01
67748;HTU21D;54543;50.712;6.070;2023-05-20T03:47:40;10.10;67.23
67748;HTU21D;54543;50.712;6.070;2023-05-20T03:50:06;10.09;68.01
67748;HTU21D;54543;50.712;6.070;2023-05-20T03:52:33;10.10;67.60
67748;HTU21D;54543;50.712;6.070;2023-05-20T03:55:00;10.07;67.59
67748;HTU21D;54543;50.712;6.070;2023-05-20T03:57:25;10.05;67.58
67748;HTU21D;54543;50.712;6.070;2023-05-20T03:59:51;9.99;67.58
67748;HTU21D;54543;50.712;6.070;2023-05-20T04:02:17;9.97;67.75
67748;HTU21D;54543;50.712;6.070;2023-05-20T04:04:43;9.92;68.02
67748;HTU21D;54543;50.712;6.070;2023-05-20T04:07:09;9.86;68.08
67748;HTU21D;54543;50.712;6.070;2023-05-20T04:09:37;9.83;68.52
67748;HTU21D;54543;50.712;6.070;2023-05-20T04:12:04;9.82;68.48
67748;HTU21D;54543;50.712;6.070;2023-05-20T04:14:33;9.81;70.78
67748;HTU21D;54543;50.712;6.070;2023-05-20T04:17:02;9.79;68.87
67748;HTU21D;54543;50.712;6.070;2023-05-20T04:19:28;9.79;68.73
67748;HTU21D;54543;50.712;6.070;2023-05-20T04:21:56;9.79;68.70
67748;HTU21D;54543;50.712;6.070;2023-05-20T04:24:22;9.81;68.77
67748;HTU21D;54543;50.712;6.070;2023-05-20T04:26:51;9.83;68.69
67748;HTU21D;54543;50.712;6.070;2023-05-20T04:29:18;9.83;68.85
67748;HTU21D;54543;50.712;6.070;2023-05-20T04:31:46;9.84;69.36
67748;HTU21D;54543;50.712;6.070;2023-05-20T04:34:13;9.86;69.10
67748;HTU21D;54543;50.712;6.070;2023-05-20T04:36:40;9.92;69.32
67748;HTU21D;54543;50.712;6.070;2023-05-20T04:39:05;9.94;69.24
67748;HTU21D;54543;50.712;6.070;2023-05-20T04:41:34;9.96;69.19
67748;HTU21D;54543;50.712;6.070;2023-05-20T04:44:00;10.00;69.39
67748;HTU21D;54543;50.712;6.070;2023-05-20T04:46:26;10.04;69.32
67748;HTU21D;54543;50.712;6.070;2023-05-20T04:48:52;10.06;69.49
67748;HTU21D;54543;50.712;6.070;2023-05-20T04:51:18;10.08;69.60
67748;HTU21D;54543;50.712;6.070;2023-05-20T04:53:44;10.11;69.62
67748;HTU21D;54543;50.712;6.070;2023-05-20T04:56:10;10.16;69.68
67748;HTU21D;54543;50.712;6.070;2023-05-20T04:58:36;10.23;69.48
67748;HTU21D;54543;50.712;6.070;2023-05-20T05:01:03;10.29;69.41
67748;HTU21D;54543;50.712;6.070;2023-05-20T05:03:28;10.36;69.27
67748;HTU21D;54543;50.712;6.070;2023-05-20T05:05:55;10.42;70.09
67748;HTU21D;54543;50.712;6.070;2023-05-20T05:08:23;10.51;69.27
67748;HTU21D;54543;50.712;6.070;2023-05-20T05:10:48;10.56;69.17
67748;HTU21D;54543;50.712;6.070;2023-05-20T05:13:14;10.60;69.33
67748;HTU21D;54543;50.712;6.070;2023-05-20T05:15:45;10.67;72.80
67748;HTU21D;54543;50.712;6.070;2023-05-20T05:18:11;10.78;70.03
67748;HTU21D;54543;50.712;6.070;2023-05-20T05:20:42;10.87;70.07
67748;HTU21D;54543;50.712;6.070;2023-05-20T05:23:08;10.97;69.10
67748;HTU21D;54543;50.712;6.070;2023-05-20T05:25:34;11.04;68.94
67748;HTU21D;54543;50.712;6.070;2023-05-20T05:28:02;11.12;68.91
67748;HTU21D;54543;50.712;6.070;2023-05-20T05:30:30;11.18;68.71
67748;HTU21D;54543;50.712;6.070;2023-05-20T05:32:58;11.26;68.52
67748;HTU21D;54543;50.712;6.070;2023-05-20T05:35:23;11.32;68.79
67748;HTU21D;54543;50.712;6.070;2023-05-20T05:37:50;11.41;68.85
67748;HTU21D;54543;50.712;6.070;2023-05-20T05:40:16;11.49;68.34
67748;HTU21D;54543;50.712;6.070;2023-05-20T05:42:41;11.57;68.18
67748;HTU21D;54543;50.712;6.070;2023-05-20T05:45:08;11.66;68.49
67748;HTU21D;54543;50.712;6.070;2023-05-20T05:47:34;11.73;67.85
67748;HTU21D;54543;50.712;6.070;2023-05-20T05:50:01;11.82;68.07
67748;HTU21D;54543;50.712;6.070;2023-05-20T05:52:27;11.88;67.81
67748;HTU21D;54543;50.712;6.070;2023-05-20T05:54:56;11.93;68.17
67748;HTU21D;54543;50.712;6.070;2023-05-20T05:57:27;12.01;68.45
67748;HTU21D;54543;50.712;6.070;2023-05-20T05:59:53;12.10;67.65
67748;HTU21D;54543;50.712;6.070;2023-05-20T06:02:21;12.19;68.01
67748;HTU21D;54543;50.712;6.070;2023-05-20T06:04:47;12.29;68.24
67748;HTU21D;54543;50.712;6.070;2023-05-20T06:07:15;12.43;69.20
67748;HTU21D;54543;50.712;6.070;2023-05-20T06:09:42;12.56;67.72
67748;HTU21D;54543;50.712;6.070;2023-05-20T06:12:07;12.69;67.00
67748;HTU21D;54543;50.712;6.070;2023-05-20T06:14:33;12.78;66.46
67748;HTU21D;54543;50.712;6.070;2023-05-20T06:17:00;12.86;66.53
67748;HTU21D;54543;50.712;6.070;2023-05-20T06:19:32;12.95;66.55
67748;HTU21D;54543;50.712;6.070;2023-05-20T06:22:00;13.03;66.98
67748;HTU21D;54543;50.712;6.070;2023-05-20T06:24:29;13.15;66.17
67748;HTU21D;54543;50.712;6.070;2023-05-20T06:26:55;13.26;65.92
67748;HTU21D;54543;50.712;6.070;2023-05-20T06:29:27;13.38;66.02
67748;HTU21D;54543;50.712;6.070;2023-05-20T06:31:53;13.48;67.36
67748;HTU21D;54543;50.712;6.070;2023-05-20T06:34:21;13.54;68.11
67748;HTU21D;54543;50.712;6.070;2023-05-20T06:36:53;13.65;66.05
67748;HTU21D;54543;50.712;6.070;2023-05-20T06:39:23;13.74;65.21
67748;HTU21D;54543;50.712;6.070;2023-05-20T06:41:49;13.82;64.85
67748;HTU21D;54543;50.712;6.070;2023-05-20T06:44:17;13.92;64.75
67748;HTU21D;54543;50.712;6.070;2023-05-20T06:46:46;14.01;66.81
67748;HTU21D;54543;50.712;6.070;2023-05-20T06:49:12;14.13;64.98
67748;HTU21D;54543;50.712;6.070;2023-05-20T06:51:42;14.26;64.99
67748;HTU21D;54543;50.712;6.070;2023-05-20T06:54:18;14.34;65.40
67748;HTU21D;54543;50.712;6.070;2023-05-20T06:56:45;14.37;64.50
67748;HTU21D;54543;50.712;6.070;2023-05-20T06:59:11;14.47;63.92
67748;HTU21D;54543;50.712;6.070;2023-05-20T07:01:38;14.52;63.57
67748;HTU21D;54543;50.712;6.070;2023-05-20T07:04:17;14.59;64.61
67748;HTU21D;54543;50.712;6.070;2023-05-20T07:06:46;14.68;63.46
67748;HTU21D;54543;50.712;6.070;2023-05-20T07:09:23;14.78;63.44
67748;HTU21D;54543;50.712;6.070;2023-05-20T07:11:55;14.88;63.82
67748;HTU21D;54543;50.712;6.070;2023-05-20T07:14:23;15.00;63.00
67748;HTU21D;54543;50.712;6.070;2023-05-20T07:16:55;15.12;63.19
67748;HTU21D;54543;50.712;6.070;2023-05-20T07:19:21;15.19;62.53
67748;HTU21D;54543;50.712;6.070;2023-05-20T07:21:46;15.29;62.28
67748;HTU21D;54543;50.712;6.070;2023-05-20T07:24:14;15.30;62.21
67748;HTU21D;54543;50.712;6.070;2023-05-20T07:26:40;15.31;61.88
67748;HTU21D;54543;50.712;6.070;2023-05-20T07:29:05;15.36;61.77
67748;HTU21D;54543;50.712;6.070;2023-05-20T07:31:31;15.41;61.84
67748;HTU21D;54543;50.712;6.070;2023-05-20T07:33:57;15.48;61.73
67748;HTU21D;54543;50.712;6.070;2023-05-20T07:36:26;15.59;61.63
67748;HTU21D;54543;50.712;6.070;2023-05-20T07:38:53;15.67;61.17
67748;HTU21D;54543;50.712;6.070;2023-05-20T07:41:18;15.73;61.11
67748;HTU21D;54543;50.712;6.070;2023-05-20T07:43:44;15.81;61.04
67748;HTU21D;54543;50.712;6.070;2023-05-20T07:46:11;15.89;60.99
67748;HTU21D;54543;50.712;6.070;2023-05-20T07:48:36;15.97;60.80
67748;HTU21D;54543;50.712;6.070;2023-05-20T07:51:02;16.10;60.73
67748;HTU21D;54543;50.712;6.070;2023-05-20T07:53:29;16.21;60.54
67748;HTU21D;54543;50.712;6.070;2023-05-20T07:56:00;16.32;60.62
67748;HTU21D;54543;50.712;6.070;2023-05-20T07:58:26;16.41;59.86
67748;HTU21D;54543;50.712;6.070;2023-05-20T08:00:55;16.49;59.59
67748;HTU21D;54543;50.712;6.070;2023-05-20T08:03:21;16.55;59.41
67748;HTU21D;54543;50.712;6.070;2023-05-20T08:05:47;16.64;59.36
67748;HTU21D;54543;50.712;6.070;2023-05-20T08:08:14;16.75;59.30
67748;HTU21D;54543;50.712;6.070;2023-05-20T08:10:40;16.78;59.12
67748;HTU21D;54543;50.712;6.070;2023-05-20T08:13:06;16.81;59.24
67748;HTU21D;54543;50.712;6.070;2023-05-20T08:15:32;16.88;59.06
67748;HTU21D;54543;50.712;6.070;2023-05-20T08:17:57;16.96;58.80
67748;HTU21D;54543;50.712;6.070;2023-05-20T08:20:24;17.01;58.74
67748;HTU21D;54543;50.712;6.070;2023-05-20T08:22:51;17.08;58.85
67748;HTU21D;54543;50.712;6.070;2023-05-20T08:25:16;17.17;58.41
67748;HTU21D;54543;50.712;6.070;2023-05-20T08:27:42;17.25;58.25
67748;HTU21D;54543;50.712;6.070;2023-05-20T08:30:08;17.31;58.01
67748;HTU21D;54543;50.712;6.070;2023-05-20T08:32:35;17.36;57.80
67748;HTU21D;54543;50.712;6.070;2023-05-20T08:35:01;17.46;57.87
67748;HTU21D;54543;50.712;6.070;2023-05-20T08:37:28;17.55;57.59
67748;HTU21D;54543;50.712;6.070;2023-05-20T08:39:54;17.66;58.08
67748;HTU21D;54543;50.712;6.070;2023-05-20T08:42:23;17.74;57.24
67748;HTU21D;54543;50.712;6.070;2023-05-20T08:44:50;17.91;57.42
67748;HTU21D;54543;50.712;6.070;2023-05-20T08:47:19;18.10;57.11
67748;HTU21D;54543;50.712;6.070;2023-05-20T08:49:46;18.18;56.56
67748;HTU21D;54543;50.712;6.070;2023-05-20T08:52:12;18.24;56.71
67748;HTU21D;54543;50.712;6.070;2023-05-20T08:54:45;18.32;57.12
67748;HTU21D;54543;50.712;6.070;2023-05-20T08:57:11;18.38;56.66
67748;HTU21D;54543;50.712;6.070;2023-05-20T08:59:47;18.41;57.13
67748;HTU21D;54543;50.712;6.070;2023-05-20T09:02:13;18.38;56.58
67748;HTU21D;54543;50.712;6.070;2023-05-20T09:04:39;18.41;56.45
67748;HTU21D;54543;50.712;6.070;2023-05-20T09:07:05;18.44;56.35
67748;HTU21D;54543;50.712;6.070;2023-05-20T09:09:33;18.54;56.42
67748;HTU21D;54543;50.712;6.070;2023-05-20T09:12:00;18.65;56.04
67748;HTU21D;54543;50.712;6.070;2023-05-20T09:14:28;18.79;55.82
67748;HTU21D;54543;50.712;6.070;2023-05-20T09:16:55;18.87;56.00
67748;HTU21D;54543;50.712;6.070;2023-05-20T09:19:24;18.97;55.53
67748;HTU21D;54543;50.712;6.070;2023-05-20T09:21:53;19.02;55.10
67748;HTU21D;54543;50.712;6.070;2023-05-20T09:24:24;19.08;54.62
67748;HTU21D;54543;50.712;6.070;2023-05-20T09:26:50;19.16;55.03
67748;HTU21D;54543;50.712;6.070;2023-05-20T09:29:16;19.25;54.86
67748;HTU21D;54543;50.712;6.070;2023-05-20T09:31:42;19.38;54.80
67748;HTU21D;54543;50.712;6.070;2023-05-20T09:34:08;19.45;54.45
67748;HTU21D;54543;50.712;6.070;2023-05-20T09:36:34;19.30;54.66
67748;HTU21D;54543;50.712;6.070;2023-05-20T09:39:02;19.09;54.84
67748;HTU21D;54543;50.712;6.070;2023-05-20T09:41:35;19.09;55.78
67748;HTU21D;54543;50.712;6.070;2023-05-20T09:44:03;19.13;54.57
67748;HTU21D;54543;50.712;6.070;2023-05-20T09:46:32;19.12;55.24
67748;HTU21D;54543;50.712;6.070;2023-05-20T09:48:59;19.23;55.24
67748;HTU21D;54543;50.712;6.070;2023-05-20T09:51:26;19.31;55.00
67748;HTU21D;54543;50.712;6.070;2023-05-20T09:53:54;19.48;54.86
67748;HTU21D;54543;50.712;6.070;2023-05-20T09:56:19;19.69;54.49
67748;HTU21D;54543;50.712;6.070;2023-05-20T09:58:48;19.82;53.84
67748;HTU21D;54543;50.712;6.070;2023-05-20T10:01:14;19.96;53.90
67748;HTU21D;54543;50.712;6.070;2023-05-20T10:03:40;20.12;53.94
67748;HTU21D;54543;50.712;6.070;2023-05-20T10:09:26;20.53;52.66
67748;HTU21D;54543;50.712;6.070;2023-05-20T10:17:21;21.00;51.85
67748;HTU21D;54543;50.712;6.070;2023-05-20T10:19:50;21.10;51.67
67748;HTU21D;54543;50.712;6.070;2023-05-20T10:22:29;21.21;50.22
67748;HTU21D;54543;50.712;6.070;2023-05-20T10:25:04;21.28;48.60
67748;HTU21D;54543;50.712;6.070;2023-05-20T10:27:44;21.31;50.65
67748;HTU21D;54543;50.712;6.070;2023-05-20T10:30:19;21.45;49.76
67748;HTU21D;54543;50.712;6.070;2023-05-20T10:32:52;21.31;49.81
67748;HTU21D;54543;50.712;6.070;2023-05-20T10:35:23;21.24;51.48
67748;HTU21D;54543;50.712;6.070;2023-05-20T10:38:06;21.34;51.55
67748;HTU21D;54543;50.712;6.070;2023-05-20T10:40:31;21.63;51.13
67748;HTU21D;54543;50.712;6.070;2023-05-20T10:43:11;21.89;49.21
67748;HTU21D;54543;50.712;6.070;2023-05-20T10:45:57;22.03;47.90
67748;HTU21D;54543;50.712;6.070;2023-05-20T10:48:27;22.08;49.41
67748;HTU21D;54543;50.712;6.070;2023-05-20T10:50:54;22.16;50.01
67748;HTU21D;54543;50.712;6.070;2023-05-20T10:53:26;22.26;49.67
67748;HTU21D;54543;50.712;6.070;2023-05-20T10:55:53;22.27;49.42
67748;HTU21D;54543;50.712;6.070;2023-05-20T10:58:23;22.20;49.14
67748;HTU21D;54543;50.712;6.070;2023-05-20T11:00:51;22.05;49.08
67748;HTU21D;54543;50.712;6.070;2023-05-20T11:03:21;21.99;49.69
67748;HTU21D;54543;50.712;6.070;2023-05-20T11:05:48;21.95;50.18
67748;HTU21D;54543;50.712;6.070;2023-05-20T11:08:14;22.05;49.94
67748;HTU21D;54543;50.712;6.070;2023-05-20T11:10:41;22.12;49.31
67748;HTU21D;54543;50.712;6.070;2023-05-20T11:13:07;22.14;48.61
67748;HTU21D;54543;50.712;6.070;2023-05-20T11:15:34;22.12;49.70
67748;HTU21D;54543;50.712;6.070;2023-05-20T11:18:02;22.18;49.70
67748;HTU21D;54543;50.712;6.070;2023-05-20T11:20:29;22.31;49.40
67748;HTU21D;54543;50.712;6.070;2023-05-20T11:22:55;22.44;49.03
67748;HTU21D;54543;50.712;6.070;2023-05-20T11:25:21;22.53;48.56
67748;HTU21D;54543;50.712;6.070;2023-05-20T11:27:50;22.62;48.83
67748;HTU21D;54543;50.712;6.070;2023-05-20T11:30:19;22.81;48.64
67748;HTU21D;54543;50.712;6.070;2023-05-20T11:33:01;22.99;47.49
67748;HTU21D;54543;50.712;6.070;2023-05-20T11:35:29;23.13;47.91
67748;HTU21D;54543;50.712;6.070;2023-05-20T11:38:05;22.99;46.00
67748;HTU21D;54543;50.712;6.070;2023-05-20T11:40:33;22.51;48.44
67748;HTU21D;54543;50.712;6.070;2023-05-20T11:43:01;22.04;49.28
67748;HTU21D;54543;50.712;6.070;2023-05-20T11:45:43;21.72;50.02
67748;HTU21D;54543;50.712;6.070;2023-05-20T11:48:10;21.57;50.85
67748;HTU21D;54543;50.712;6.070;2023-05-20T11:50:39;21.59;50.84
67748;HTU21D;54543;50.712;6.070;2023-05-20T11:53:07;21.66;50.93
67748;HTU21D;54543;50.712;6.070;2023-05-20T11:55:42;21.85;50.45
67748;HTU21D;54543;50.712;6.070;2023-05-20T11:58:08;22.08;49.95
67748;HTU21D;54543;50.712;6.070;2023-05-20T12:00:34;22.20;49.59
67748;HTU21D;54543;50.712;6.070;2023-05-20T12:02:59;22.24;49.22
67748;HTU21D;54543;50.712;6.070;2023-05-20T12:05:25;22.31;49.37
67748;HTU21D;54543;50.712;6.070;2023-05-20T12:07:51;22.40;49.01
67748;HTU21D;54543;50.712;6.070;2023-05-20T12:10:16;22.27;48.72
67748;HTU21D;54543;50.712;6.070;2023-05-20T12:12:42;22.14;49.70
67748;HTU21D;54543;50.712;6.070;2023-05-20T12:15:09;22.22;49.66
67748;HTU21D;54543;50.712;6.070;2023-05-20T12:17:47;22.35;49.89
67748;HTU21D;54543;50.712;6.070;2023-05-20T12:20:14;22.53;49.39
67748;HTU21D;54543;50.712;6.070;2023-05-20T12:22:40;22.58;48.99
67748;HTU21D;54543;50.712;6.070;2023-05-20T12:25:06;22.63;49.09
67748;HTU21D;54543;50.712;6.070;2023-05-20T12:27:32;22.82;48.99
67748;HTU21D;54543;50.712;6.070;2023-05-20T12:29:58;23.02;48.56
67748;HTU21D;54543;50.712;6.070;2023-05-20T12:32:23;23.16;48.43
67748;HTU21D;54543;50.712;6.070;2023-05-20T12:34:49;23.32;47.98
67748;HTU21D;54543;50.712;6.070;2023-05-20T12:37:15;23.58;47.86
67748;HTU21D;54543;50.712;6.070;2023-05-20T12:39:41;23.70;47.49
67748;HTU21D;54543;50.712;6.070;2023-05-20T12:42:06;23.46;47.52
67748;HTU21D;54543;50.712;6.070;2023-05-20T12:44:32;23.18;48.09
67748;HTU21D;54543;50.712;6.070;2023-05-20T12:46:58;22.95;48.62
67748;HTU21D;54543;50.712;6.070;2023-05-20T12:49:23;22.73;49.24
67748;HTU21D;54543;50.712;6.070;2023-05-20T12:51:49;22.73;49.56
67748;HTU21D;54543;50.712;6.070;2023-05-20T12:54:16;22.88;49.34
67748;HTU21D;54543;50.712;6.070;2023-05-20T12:56:41;23.03;48.28
67748;HTU21D;54543;50.712;6.070;2023-05-20T12:59:12;23.02;48.50
67748;HTU21D;54543;50.712;6.070;2023-05-20T13:01:38;22.95;48.72
67748;HTU21D;54543;50.712;6.070;2023-05-20T13:04:04;23.13;48.58
67748;HTU21D;54543;50.712;6.070;2023-05-20T13:06:30;23.22;48.34
67748;HTU21D;54543;50.712;6.070;2023-05-20T13:08:56;23.21;48.49
67748;HTU21D;54543;50.712;6.070;2023-05-20T13:11:22;23.03;48.73
67748;HTU21D;54543;50.712;6.070;2023-05-20T13:13:47;23.06;48.68
67748;HTU21D;54543;50.712;6.070;2023-05-20T13:16:13;23.05;48.60
67748;HTU21D;54543;50.712;6.070;2023-05-20T13:18:41;23.02;48.60
67748;HTU21D;54543;50.712;6.070;2023-05-20T13:21:06;22.95;48.65
67748;HTU21D;54543;50.712;6.070;2023-05-20T13:23:32;22.91;48.70
67748;HTU21D;54543;50.712;6.070;2023-05-20T13:25:58;22.96;48.79
67748;HTU21D;54543;50.712;6.070;2023-05-20T13:28:24;23.09;48.65
67748;HTU21D;54543;50.712;6.070;2023-05-20T13:30:50;23.14;48.33
67748;HTU21D;54543;50.712;6.070;2023-05-20T13:33:16;23.12;48.26
67748;HTU21D;54543;50.712;6.070;2023-05-20T13:35:41;23.07;48.37
67748;HTU21D;54543;50.712;6.070;2023-05-20T13:38:07;23.08;48.62
67748;HTU21D;54543;50.712;6.070;2023-05-20T13:40:32;23.15;48.51
67748;HTU21D;54543;50.712;6.070;2023-05-20T13:42:58;23.13;47.95
67748;HTU21D;54543;50.712;6.070;2023-05-20T13:45:23;22.96;48.60
67748;HTU21D;54543;50.712;6.070;2023-05-20T13:47:49;22.84;48.92
67748;HTU21D;54543;50.712;6.070;2023-05-20T13:50:15;22.67;49.29
67748;HTU21D;54543;50.712;6.070;2023-05-20T13:52:41;22.62;49.27
67748;HTU21D;54543;50.712;6.070;2023-05-20T13:55:07;22.53;49.40
67748;HTU21D;54543;50.712;6.070;2023-05-20T13:57:32;22.51;49.55
67748;HTU21D;54543;50.712;6.070;2023-05-20T13:59:58;22.53;49.71
67748;HTU21D;54543;50.712;6.070;2023-05-20T14:02:23;22.61;49.46
67748;HTU21D;54543;50.712;6.070;2023-05-20T14:04:49;22.60;49.24
67748;HTU21D;54543;50.712;6.070;2023-05-20T14:07:15;22.47;49.45
67748;HTU21D;54543;50.712;6.070;2023-05-20T14:09:40;22.50;49.47
67748;HTU21D;54543;50.712;6.070;2023-05-20T14:12:06;22.50;49.54
67748;HTU21D;54543;50.712;6.070;2023-05-20T14:14:32;22.50;49.54
67748;HTU21D;54543;50.712;6.070;2023-05-20T14:16:57;22.64;49.44
67748;HTU21D;54543;50.712;6.070;2023-05-20T14:19:23;22.73;49.39
67748;HTU21D;54543;50.712;6.070;2023-05-20T14:21:48;22.83;49.21
67748;HTU21D;54543;50.712;6.070;2023-05-20T14:24:14;22.86;49.18
67748;HTU21D;54543;50.712;6.070;2023-05-20T14:26:40;22.77;49.12
67748;HTU21D;54543;50.712;6.070;2023-05-20T14:29:05;22.66;49.56
67748;HTU21D;54543;50.712;6.070;2023-05-20T14:31:31;22.71;50.18
67748;HTU21D;54543;50.712;6.070;2023-05-20T14:33:56;23.02;51.01
67748;HTU21D;54543;50.712;6.070;2023-05-20T14:36:22;23.47;51.45
67748;HTU21D;54543;50.712;6.070;2023-05-20T14:38:48;23.94;52.04
67748;HTU21D;54543;50.712;6.070;2023-05-20T14:41:13;24.28;50.44
67748;HTU21D;54543;50.712;6.070;2023-05-20T14:43:39;24.45;49.16
67748;HTU21D;54543;50.712;6.070;2023-05-20T14:46:05;24.54;48.98
67748;HTU21D;54543;50.712;6.070;2023-05-20T14:48:31;24.70;48.37
67748;HTU21D;54543;50.712;6.070;2023-05-20T14:50:56;24.82;48.27
67748;HTU21D;54543;50.712;6.070;2023-05-20T14:53:22;24.82;47.38
67748;HTU21D;54543;50.712;6.070;2023-05-20T14:55:47;24.53;47.28
67748;HTU21D;54543;50.712;6.070;2023-05-20T14:58:13;24.29;46.47
67748;HTU21D;54543;50.712;6.070;2023-05-20T15:00:39;23.97;47.38
67748;HTU21D;54543;50.712;6.070;2023-05-20T15:03:04;23.75;47.16
67748;HTU21D;54543;50.712;6.070;2023-05-20T15:05:30;23.47;47.63
67748;HTU21D;54543;50.712;6.070;2023-05-20T15:07:56;23.24;47.77
67748;HTU21D;54543;50.712;6.070;2023-05-20T15:10:21;23.01;47.86
67748;HTU21D;54543;50.712;6.070;2023-05-20T15:12:47;22.78;48.02
67748;HTU21D;54543;50.712;6.070;2023-05-20T15:15:13;22.48;48.47
67748;HTU21D;54543;50.712;6.070;2023-05-20T15:17:38;22.25;48.84
67748;HTU21D;54543;50.712;6.070;2023-05-20T15:20:04;22.01;49.08
67748;HTU21D;54543;50.712;6.070;2023-05-20T15:22:30;21.76;49.58
67748;HTU21D;54543;50.712;6.070;2023-05-20T15:24:56;21.62;49.89